Time;durP1;ratioP1;P1;durP2;ratioP2;P2;SDS_P1;SDS_P2;PMS_P1;PMS_P2;Temp;Humidity;BMP_temperature;BMP_pressure;BME280_temperature;BME280_humidity;BME280_pressure;Samples;Min_cycle;Max_cycle;Signal;HPM_P1;HPM_P2
2023/02/23 00:02:06;;;;;;;8.73;1.45;;;20.20;99.90;;;;;;5044960;28;20025;-65
2023/02/23 00:04:34;;;;;;;4.85;1.45;;;20.30;99.90;;;;;;5043749;28;20055;-64
2023/02/23 00:07:02;;;;;;;8.82;1.80;;;20.20;99.90;;;;;;5043903;28;20060;-64
2023/02/23 00:09:34;;;;;;;8.57;1.70;;;20.20;99.90;;;;;;5046357;28;20040;-65
2023/02/23 00:12:06;;;;;;;13.13;2.25;;;20.10;99.90;;;;;;5045630;28;20025;-65
2023/02/23 00:14:36;;;;;;;7.75;1.55;;;20.10;99.90;;;;;;5048119;28;20100;-63
2023/02/23 00:17:04;;;;;;;11.02;2.75;;;20.00;99.90;;;;;;5047435;28;20055;-64
2023/02/23 00:19:36;;;;;;;10.65;1.58;;;19.80;99.90;;;;;;5048180;28;20056;-64
2023/02/23 00:22:03;;;;;;;17.10;2.17;;;19.70;99.90;;;;;;5049653;28;20021;-65
2023/02/23 00:24:31;;;;;;;7.88;1.50;;;19.60;99.90;;;;;;5047087;28;20025;-66
2023/02/23 00:26:58;;;;;;;6.78;1.63;;;19.60;99.90;;;;;;5049396;28;20017;-65
2023/02/23 00:29:26;;;;;;;9.75;2.05;;;19.60;99.90;;;;;;5041927;28;20025;-65
2023/02/23 00:31:54;;;;;;;11.93;1.80;;;19.80;99.90;;;;;;5035592;28;20044;-66
2023/02/23 00:34:22;;;;;;;8.52;2.15;;;19.80;99.90;;;;;;5050521;28;20033;-65
2023/02/23 00:36:54;;;;;;;12.40;1.92;;;19.90;99.90;;;;;;5042488;28;20036;-66
2023/02/23 00:39:27;;;;;;;9.15;1.95;;;19.90;99.90;;;;;;5049468;28;20378;-66
2023/02/23 00:42:01;;;;;;;7.77;1.97;;;19.90;99.90;;;;;;5048936;28;20025;-65
2023/02/23 00:44:29;;;;;;;16.73;2.10;;;19.70;99.90;;;;;;5047602;28;20021;-64
2023/02/23 00:46:56;;;;;;;10.05;2.38;;;19.80;99.90;;;;;;5049105;28;20079;-64
2023/02/23 00:49:24;;;;;;;15.95;2.55;;;19.80;99.90;;;;;;5047871;28;20021;-66
2023/02/23 00:51:52;;;;;;;11.60;2.20;;;19.80;99.90;;;;;;5064612;28;20025;-68
2023/02/23 00:54:21;;;;;;;18.70;2.90;;;20.00;99.90;;;;;;5047948;28;20043;-66
2023/02/23 00:56:49;;;;;;;14.18;1.75;;;20.10;99.90;;;;;;5044159;28;20026;-63
2023/02/23 00:59:17;;;;;;;14.30;2.03;;;20.50;99.90;;;;;;5035737;28;20401;-63
2023/02/23 01:01:45;;;;;;;12.90;2.72;;;20.80;99.90;;;;;;5045707;28;20033;-65
2023/02/23 01:04:13;;;;;;;9.50;2.05;;;21.00;99.90;;;;;;5048629;28;20032;-64
2023/02/23 01:06:42;;;;;;;8.38;1.80;;;21.40;99.90;;;;;;5047686;28;20109;-65
2023/02/23 01:09:13;;;;;;;12.70;2.55;;;21.60;99.90;;;;;;5047884;28;20477;-66
2023/02/23 01:11:41;;;;;;;8.35;1.65;;;22.10;99.90;;;;;;5055103;28;20154;-69
2023/02/23 01:14:10;;;;;;;7.95;1.52;;;22.70;99.90;;;;;;5043548;28;20126;-68
2023/02/23 01:16:38;;;;;;;10.80;2.40;;;23.00;99.90;;;;;;5055792;28;20020;-68
2023/02/23 01:19:06;;;;;;;10.45;2.17;;;23.10;99.90;;;;;;5057407;28;20044;-70
2023/02/23 01:21:36;;;;;;;9.55;2.03;;;23.10;99.90;;;;;;5050477;28;20392;-69
2023/02/23 01:24:05;;;;;;;12.35;1.88;;;23.10;99.90;;;;;;5054521;28;20073;-69
2023/02/23 01:26:36;;;;;;;9.13;1.85;;;23.00;99.90;;;;;;5050609;28;20052;-68
2023/02/23 01:29:15;;;;;;;14.23;1.85;;;22.90;99.90;;;;;;5049095;28;20029;-69
2023/02/23 01:31:46;;;;;;;11.80;2.60;;;22.80;99.90;;;;;;5048658;28;20049;-68
2023/02/23 01:34:14;;;;;;;11.60;2.65;;;22.90;99.90;;;;;;5060449;28;20021;-69
2023/02/23 01:36:43;;;;;;;9.73;1.77;;;23.00;99.90;;;;;;5062673;28;20453;-69
2023/02/23 01:39:14;;;;;;;7.00;1.63;;;22.60;99.90;;;;;;5054775;28;20047;-68
2023/02/23 01:41:42;;;;;;;11.45;2.30;;;22.70;99.90;;;;;;5046870;28;20501;-68
2023/02/23 01:44:13;;;;;;;10.63;2.40;;;22.60;99.90;;;;;;5048481;28;20041;-69
2023/02/23 01:46:48;;;;;;;13.10;2.15;;;22.50;99.90;;;;;;5045438;28;20021;-68
2023/02/23 01:49:29;;;;;;;8.40;2.22;;;22.30;99.90;;;;;;5050412;28;20037;-69
2023/02/23 01:52:09;;;;;;;9.68;1.65;;;22.00;99.90;;;;;;5053329;28;20024;-69
2023/02/23 01:54:49;;;;;;;9.85;1.58;;;22.00;99.90;;;;;;5044249;28;20487;-69
2023/02/23 01:57:18;;;;;;;8.52;1.98;;;22.00;99.90;;;;;;5047718;28;20036;-68
2023/02/23 01:59:48;;;;;;;12.40;2.92;;;22.30;99.90;;;;;;5050207;28;20033;-67
2023/02/23 02:02:21;;;;;;;6.97;1.80;;;22.40;99.90;;;;;;5040801;28;20021;-70
2023/02/23 02:04:50;;;;;;;6.35;1.50;;;22.90;99.90;;;;;;5044500;28;20029;-69
2023/02/23 02:07:28;;;;;;;7.55;1.48;;;23.20;99.90;;;;;;5046717;28;20096;-69
2023/02/23 02:12:43;;;;;;;5.95;1.75;;;23.70;99.90;;;;;;5050064;28;20032;-67
2023/02/23 02:15:16;;;;;;;8.90;2.53;;;23.90;99.90;;;;;;5050313;28;20563;-67
2023/02/23 02:18:08;;;;;;;7.80;1.50;;;23.60;99.90;;;;;;5046323;28;20049;-69
2023/02/23 02:21:10;;;;;;;10.25;2.30;;;23.80;99.90;;;;;;5042505;28;20511;-68
2023/02/23 02:24:11;;;;;;;10.13;2.28;;;23.80;99.90;;;;;;5047267;28;20033;-70
2023/02/23 02:26:57;;;;;;;12.48;2.25;;;23.60;99.90;;;;;;5046823;28;20031;-66
2023/02/23 02:30:00;;;;;;;11.70;2.25;;;23.70;99.90;;;;;;5046338;28;20289;-68
2023/02/23 02:32:46;;;;;;;10.80;2.20;;;23.70;99.90;;;;;;5047735;28;20044;-68
2023/02/23 02:35:36;;;;;;;10.27;1.65;;;23.70;99.90;;;;;;5045164;28;20020;-67
2023/02/23 02:38:23;;;;;;;10.63;2.00;;;23.20;99.90;;;;;;5047210;28;20119;-67
2023/02/23 02:40:59;;;;;;;8.77;1.58;;;23.00;99.90;;;;;;5050722;28;20119;-67
2023/02/23 02:43:58;;;;;;;11.95;2.20;;;22.70;99.90;;;;;;5040701;28;20044;-67
2023/02/23 02:46:40;;;;;;;7.38;1.92;;;22.40;99.90;;;;;;5036820;28;20023;-67
2023/02/23 02:49:20;;;;;;;8.68;1.60;;;22.30;99.90;;;;;;5048770;28;20366;-66
2023/02/23 02:52:01;;;;;;;14.98;2.67;;;22.30;99.90;;;;;;5050356;28;20044;-63
2023/02/23 02:54:43;;;;;;;9.25;2.17;;;22.30;99.90;;;;;;5053460;28;20545;-67
2023/02/23 02:57:12;;;;;;;10.27;2.35;;;22.50;99.90;;;;;;5054757;28;20478;-66
2023/02/23 04:18:25;;;;;;;9.23;2.10;;;24.00;99.90;;;;;;5050368;28;20044;-65
2023/02/23 04:20:54;;;;;;;11.52;2.40;;;24.00;99.90;;;;;;5043246;28;20059;-64
2023/02/23 04:23:22;;;;;;;16.80;3.53;;;24.00;99.90;;;;;;5046722;28;20082;-65
2023/02/23 04:25:50;;;;;;;12.23;1.65;;;23.80;99.90;;;;;;5049218;28;20021;-65
2023/02/23 04:28:18;;;;;;;8.40;1.63;;;24.00;99.90;;;;;;5043359;28;20063;-65
2023/02/23 04:30:46;;;;;;;9.55;1.70;;;24.00;99.90;;;;;;5039465;28;20028;-65
2023/02/23 04:33:14;;;;;;;9.65;1.83;;;24.20;99.90;;;;;;5041382;28;20053;-65
2023/02/23 04:35:41;;;;;;;11.95;1.50;;;24.50;99.90;;;;;;5040719;28;20029;-63
2023/02/23 04:38:09;;;;;;;12.98;1.80;;;24.50;99.90;;;;;;5048778;28;20094;-65
2023/02/23 04:40:36;;;;;;;13.48;1.60;;;24.50;99.90;;;;;;5050373;28;20025;-64
2023/02/23 04:43:04;;;;;;;11.18;1.92;;;25.00;99.90;;;;;;5053554;28;20503;-65
2023/02/23 04:45:31;;;;;;;11.85;2.58;;;24.50;99.90;;;;;;5047368;28;20675;-64
2023/02/23 04:47:58;;;;;;;9.07;1.52;;;24.50;99.90;;;;;;5051649;28;20029;-63
2023/02/23 04:50:26;;;;;;;12.57;1.83;;;24.50;99.90;;;;;;5047397;28;20387;-64
2023/02/23 04:52:53;;;;;;;14.50;1.92;;;25.00;99.90;;;;;;5047501;28;20100;-67
2023/02/23 04:55:23;;;;;;;11.73;2.85;;;25.40;99.90;;;;;;5049627;28;20033;-65
2023/02/23 04:57:56;;;;;;;10.57;2.20;;;25.60;99.90;;;;;;5056319;28;20032;-64
2023/02/23 05:00:24;;;;;;;6.40;1.92;;;25.20;99.90;;;;;;5056249;28;20485;-66
2023/02/23 05:02:51;;;;;;;11.30;1.83;;;24.40;99.90;;;;;;5058306;28;20045;-64
2023/02/23 05:05:20;;;;;;;8.20;1.65;;;24.20;99.90;;;;;;5055139;28;20052;-65
2023/02/23 05:07:47;;;;;;;6.10;1.45;;;24.20;99.90;;;;;;5049599;28;20615;-65
2023/02/23 05:10:15;;;;;;;7.85;1.42;;;24.30;99.90;;;;;;5045494;28;20405;-66
2023/02/23 05:12:42;;;;;;;8.38;1.40;;;24.40;99.90;;;;;;5039152;28;20116;-66
2023/02/23 05:15:10;;;;;;;11.25;2.20;;;24.40;99.90;;;;;;5051118;28;20025;-65
2023/02/23 05:17:40;;;;;;;8.07;1.27;;;24.40;99.90;;;;;;5039434;28;20058;-66
2023/02/23 05:20:10;;;;;;;10.45;1.98;;;24.40;99.90;;;;;;5049671;28;20041;-67
2023/02/23 05:22:37;;;;;;;8.00;1.30;;;24.60;99.90;;;;;;5052158;28;20504;-66
2023/02/23 05:25:07;;;;;;;9.25;1.40;;;24.50;99.90;;;;;;5057769;28;20032;-66
2023/02/23 05:27:35;;;;;;;9.80;1.65;;;24.60;99.90;;;;;;5054675;28;20021;-65
2023/02/23 05:30:03;;;;;;;7.15;1.73;;;24.80;99.90;;;;;;5055552;28;20017;-66
2023/02/23 05:32:31;;;;;;;7.80;1.20;;;25.10;99.90;;;;;;5048162;28;20045;-66
2023/02/23 05:34:58;;;;;;;12.50;1.70;;;25.00;99.90;;;;;;5060246;28;20043;-65
2023/02/23 05:37:26;;;;;;;9.55;1.83;;;24.80;99.90;;;;;;5050750;28;20082;-65
2023/02/23 05:39:54;;;;;;;9.68;2.08;;;24.70;99.90;;;;;;5056463;28;20033;-67
2023/02/23 05:42:21;;;;;;;8.25;1.85;;;24.70;99.90;;;;;;5048087;28;20017;-66
2023/02/23 05:44:48;;;;;;;8.38;1.45;;;24.20;99.90;;;;;;5052941;28;20029;-65
2023/02/23 05:47:16;;;;;;;16.00;2.38;;;24.10;99.90;;;;;;5043939;28;20051;-66
2023/02/23 05:49:45;;;;;;;9.68;2.17;;;23.90;99.90;;;;;;5055348;28;20036;-66
2023/02/23 05:52:12;;;;;;;13.32;2.25;;;23.60;99.90;;;;;;5060797;28;20021;-65
2023/02/23 05:54:39;;;;;;;5.88;1.45;;;23.50;99.90;;;;;;5051617;28;20379;-66
2023/02/23 05:57:07;;;;;;;11.23;1.35;;;23.40;99.90;;;;;;5055536;28;20021;-66
2023/02/23 05:59:34;;;;;;;12.45;2.45;;;23.20;99.90;;;;;;5055648;28;20481;-66
2023/02/23 06:02:04;;;;;;;9.82;2.22;;;23.10;99.90;;;;;;5047100;28;20032;-64
2023/02/23 06:04:32;;;;;;;8.82;1.50;;;23.10;99.90;;;;;;5036720;28;20026;-63
2023/02/23 06:07:00;;;;;;;7.57;1.90;;;23.20;99.90;;;;;;5044525;28;20609;-65
2023/02/23 06:09:27;;;;;;;10.40;1.30;;;23.20;99.90;;;;;;5048424;28;20032;-64
2023/02/23 06:11:54;;;;;;;13.77;2.00;;;23.10;99.90;;;;;;5034790;28;20025;-65
2023/02/23 06:14:22;;;;;;;10.15;1.95;;;22.90;99.90;;;;;;5049539;28;20108;-65
2023/02/23 06:16:49;;;;;;;12.00;2.10;;;22.90;99.90;;;;;;5045764;28;20436;-66
2023/02/23 06:19:17;;;;;;;11.60;1.95;;;22.70;99.90;;;;;;5042754;28;20040;-64
2023/02/23 06:21:45;;;;;;;7.95;1.35;;;22.70;99.90;;;;;;5054390;28;20052;-65
2023/02/23 06:24:12;;;;;;;13.40;1.60;;;22.70;99.90;;;;;;5057791;28;20512;-65
2023/02/23 06:26:40;;;;;;;9.93;1.88;;;22.70;99.90;;;;;;5064370;28;20035;-64
2023/02/23 06:29:07;;;;;;;8.18;1.45;;;22.70;99.90;;;;;;5052284;28;20017;-66
2023/02/23 06:31:35;;;;;;;13.27;1.33;;;22.70;99.90;;;;;;5057228;28;20069;-63
2023/02/23 06:34:02;;;;;;;8.45;2.00;;;22.70;99.90;;;;;;5058916;28;20033;-60
2023/02/23 06:36:30;;;;;;;12.80;2.15;;;22.70;99.90;;;;;;5057325;28;20025;-60
2023/02/23 06:38:58;;;;;;;10.85;2.03;;;22.70;99.90;;;;;;5065862;28;20021;-60
2023/02/23 06:41:26;;;;;;;9.48;2.13;;;22.70;99.90;;;;;;5035712;28;20020;-61
2023/02/23 06:43:54;;;;;;;11.32;1.88;;;22.60;99.90;;;;;;5060980;28;20024;-61
2023/02/23 06:46:22;;;;;;;6.95;1.17;;;22.50;99.90;;;;;;5048758;28;20025;-60
2023/02/23 06:48:50;;;;;;;13.00;1.35;;;22.50;99.90;;;;;;5063394;28;20029;-60
2023/02/23 06:51:17;;;;;;;10.88;1.65;;;22.50;99.90;;;;;;5051141;28;20017;-61
2023/02/23 06:53:45;;;;;;;12.15;1.60;;;22.50;99.90;;;;;;5061623;28;20025;-61
2023/02/23 06:56:12;;;;;;;9.13;2.78;;;22.50;99.90;;;;;;5050005;28;20024;-61
2023/02/23 06:58:42;;;;;;;5.97;1.13;;;22.50;99.90;;;;;;5063598;28;20087;-61
2023/02/23 07:01:11;;;;;;;9.90;2.15;;;22.50;99.90;;;;;;5051507;28;20094;-61
2023/02/23 07:03:38;;;;;;;9.15;1.52;;;22.40;99.90;;;;;;5064083;28;20028;-60
2023/02/23 07:06:06;;;;;;;10.88;1.50;;;22.40;99.90;;;;;;5058779;28;20020;-62
2023/02/23 07:08:35;;;;;;;6.82;1.50;;;22.50;99.90;;;;;;5043251;28;20468;-63
2023/02/23 07:11:12;;;;;;;9.52;1.70;;;22.40;99.90;;;;;;5048011;28;20017;-63
2023/02/23 07:13:39;;;;;;;9.00;1.40;;;22.30;99.90;;;;;;5059494;28;20420;-63
2023/02/23 07:16:08;;;;;;;5.88;1.23;;;22.30;99.90;;;;;;5051656;28;20131;-63
2023/02/23 07:18:35;;;;;;;13.07;2.17;;;22.30;99.90;;;;;;5041074;28;20075;-63
2023/02/23 07:21:03;;;;;;;13.93;1.77;;;22.20;99.90;;;;;;5038966;28;20024;-64
2023/02/23 07:23:30;;;;;;;11.45;1.70;;;22.30;99.90;;;;;;5040220;28;20494;-63
2023/02/23 07:25:58;;;;;;;16.40;2.05;;;22.20;99.90;;;;;;5040396;28;20071;-63
2023/02/23 07:28:29;;;;;;;14.10;1.92;;;22.10;99.90;;;;;;5042323;28;20048;-64
2023/02/23 07:30:58;;;;;;;10.13;2.10;;;22.00;99.90;;;;;;5047482;28;20072;-64
2023/02/23 07:33:26;;;;;;;6.25;1.30;;;21.90;99.90;;;;;;5034334;28;20543;-63
2023/02/23 07:35:53;;;;;;;9.98;1.73;;;21.80;99.90;;;;;;5062773;28;20124;-63
2023/02/23 07:38:21;;;;;;;11.65;1.55;;;21.80;99.90;;;;;;5055547;28;20040;-64
2023/02/23 07:40:50;;;;;;;6.70;1.52;;;21.70;99.90;;;;;;5052913;28;20029;-63
2023/02/23 07:43:21;;;;;;;10.43;1.35;;;21.70;99.90;;;;;;5061450;28;20507;-63
2023/02/23 07:45:52;;;;;;;11.57;1.50;;;21.60;99.90;;;;;;5046388;28;20385;-63
2023/02/23 07:48:20;;;;;;;7.80;1.33;;;21.60;99.90;;;;;;5056564;28;20444;-63
2023/02/23 07:50:48;;;;;;;10.25;1.95;;;21.60;99.90;;;;;;5051424;28;20029;-64
2023/02/23 07:53:15;;;;;;;8.20;1.80;;;21.60;99.90;;;;;;5062880;28;20060;-64
2023/02/23 07:55:43;;;;;;;13.05;1.52;;;21.60;99.90;;;;;;5051041;28;20020;-63
2023/02/23 07:58:12;;;;;;;12.40;1.60;;;21.50;99.90;;;;;;5056466;28;20457;-63
2023/02/23 08:00:39;;;;;;;9.98;2.28;;;21.50;99.90;;;;;;5055511;28;20108;-63
2023/02/23 08:03:07;;;;;;;12.13;2.35;;;21.40;99.90;;;;;;5049655;28;20033;-64
2023/02/23 08:05:35;;;;;;;9.13;1.48;;;21.40;99.90;;;;;;5060976;28;20478;-64
2023/02/23 08:08:03;;;;;;;7.60;1.40;;;21.40;99.90;;;;;;5053349;28;20143;-65
2023/02/23 08:10:30;;;;;;;10.15;2.28;;;21.40;99.90;;;;;;5051186;28;20029;-62
2023/02/23 08:12:59;;;;;;;5.43;1.00;;;21.30;99.90;;;;;;5054303;28;20167;-62
2023/02/23 08:15:26;;;;;;;9.98;1.85;;;21.30;99.90;;;;;;5057087;28;20031;-62
2023/02/23 08:17:54;;;;;;;5.95;1.30;;;21.30;99.90;;;;;;5058057;28;20028;-62
2023/02/23 08:20:21;;;;;;;7.03;1.45;;;21.30;99.90;;;;;;5058702;28;20041;-62
2023/02/23 08:22:53;;;;;;;11.90;1.27;;;21.30;99.90;;;;;;5065307;28;20028;-62
2023/02/23 08:25:21;;;;;;;12.82;2.15;;;21.30;99.90;;;;;;5053815;28;20071;-64
2023/02/23 08:27:53;;;;;;;7.22;1.25;;;21.20;99.90;;;;;;5063582;28;20095;-64
2023/02/23 08:30:24;;;;;;;13.88;2.83;;;21.20;99.90;;;;;;5060353;28;20025;-64
2023/02/23 08:32:52;;;;;;;6.88;1.45;;;21.10;99.90;;;;;;5065463;28;20049;-65
2023/02/23 08:35:21;;;;;;;5.10;0.90;;;21.00;99.90;;;;;;5053230;28;20028;-65
2023/02/23 08:37:48;;;;;;;3.78;1.23;;;21.00;99.90;;;;;;5062505;28;20035;-66
2023/02/23 08:40:17;;;;;;;12.38;1.65;;;20.90;99.90;;;;;;5058063;28;20061;-66
2023/02/23 08:42:44;;;;;;;8.95;2.25;;;20.90;99.90;;;;;;5057949;28;20108;-66
2023/02/23 08:45:12;;;;;;;10.40;1.92;;;20.90;99.90;;;;;;5065884;28;20074;-66
2023/02/23 08:47:40;;;;;;;12.18;2.95;;;20.80;99.90;;;;;;5054956;28;20028;-66
2023/02/23 08:50:09;;;;;;;9.48;2.05;;;20.80;99.90;;;;;;5052664;28;20021;-66
2023/02/23 08:52:37;;;;;;;9.02;1.95;;;20.70;99.90;;;;;;5063076;28;20024;-66
2023/02/23 08:55:06;;;;;;;9.18;1.70;;;20.70;99.90;;;;;;5052991;28;20029;-66
2023/02/23 08:57:35;;;;;;;7.38;1.40;;;20.60;99.90;;;;;;5063332;28;20028;-66
2023/02/23 09:00:12;;;;;;;11.90;1.48;;;20.70;99.90;;;;;;5058286;28;20094;-66
2023/02/23 09:02:41;;;;;;;11.45;1.35;;;20.60;99.90;;;;;;5044451;28;20039;-66
2023/02/23 09:05:09;;;;;;;9.07;1.55;;;20.60;99.90;;;;;;5064374;28;20079;-66
2023/02/23 09:07:39;;;;;;;10.90;1.60;;;20.60;99.90;;;;;;5052084;28;20051;-66
2023/02/23 09:10:07;;;;;;;4.93;1.88;;;20.60;99.90;;;;;;5046966;28;20059;-66
2023/02/23 09:12:34;;;;;;;7.78;1.27;;;20.60;99.90;;;;;;5062491;28;20028;-66
2023/02/23 09:15:02;;;;;;;9.27;1.05;;;20.60;99.90;;;;;;5052319;28;20029;-66
2023/02/23 09:17:29;;;;;;;7.05;2.20;;;20.60;99.90;;;;;;5052812;28;20027;-66
2023/02/23 09:19:57;;;;;;;5.82;1.17;;;20.60;99.90;;;;;;5061195;28;20037;-66
2023/02/23 09:22:24;;;;;;;11.73;1.30;;;20.60;99.90;;;;;;5061356;28;20029;-66
2023/02/23 09:24:52;;;;;;;7.22;1.27;;;20.60;99.90;;;;;;5051615;28;20029;-66
2023/02/23 09:27:19;;;;;;;11.18;1.48;;;20.50;99.90;;;;;;5054890;28;20548;-66
2023/02/23 09:29:47;;;;;;;5.50;1.00;;;20.50;99.90;;;;;;5052111;28;20554;-66
2023/02/23 09:32:14;;;;;;;12.98;1.30;;;20.40;99.90;;;;;;5057461;28;20140;-66
2023/02/23 09:34:41;;;;;;;5.55;1.00;;;20.30;99.90;;;;;;5054598;28;20078;-66
2023/02/23 09:37:09;;;;;;;7.95;1.30;;;20.30;99.90;;;;;;5042368;28;20390;-66
2023/02/23 09:39:36;;;;;;;7.05;1.13;;;20.10;99.90;;;;;;5044040;28;20037;-66
2023/02/23 09:42:18;;;;;;;9.90;2.33;;;20.10;99.90;;;;;;5042983;28;20028;-66
2023/02/23 09:45:31;;;;;;;6.38;1.02;;;20.00;99.90;;;;;;5058321;28;20680;-65
2023/02/23 09:48:05;;;;;;;12.20;1.67;;;19.90;99.90;;;;;;5045070;28;20021;-66
2023/02/23 09:50:36;;;;;;;5.82;1.33;;;19.80;99.90;;;;;;5048817;28;20497;-66
2023/02/23 09:53:12;;;;;;;6.53;1.45;;;19.70;99.90;;;;;;5048441;28;20060;-66
2023/02/23 09:55:42;;;;;;;6.93;1.88;;;19.60;99.90;;;;;;5059202;28;20087;-66
2023/02/23 09:58:21;;;;;;;6.32;1.20;;;19.40;99.90;;;;;;5056150;28;20032;-65
2023/02/23 10:01:04;;;;;;;9.52;1.67;;;19.20;99.90;;;;;;5051823;28;20035;-64
2023/02/23 10:03:37;;;;;;;8.98;1.10;;;19.10;99.90;;;;;;5049107;28;20066;-64
2023/02/23 10:06:10;;;;;;;10.30;1.85;;;18.90;99.90;;;;;;5040866;28;20039;-64
2023/02/23 10:08:47;;;;;;;9.30;1.13;;;18.90;99.90;;;;;;5041134;28;20029;-64
2023/02/23 10:11:46;;;;;;;10.55;1.60;;;18.70;99.90;;;;;;5043099;28;20232;-64
2023/02/23 10:14:39;;;;;;;6.28;1.05;;;18.70;99.90;;;;;;5034046;28;20033;-65
2023/02/23 10:17:28;;;;;;;9.23;1.33;;;18.70;99.90;;;;;;5043461;28;20036;-65
2023/02/23 10:20:04;;;;;;;8.13;1.25;;;18.70;99.90;;;;;;5054620;28;20457;-66
2023/02/23 10:22:35;;;;;;;13.07;2.08;;;18.70;99.90;;;;;;5043148;28;20021;-65
2023/02/23 10:25:12;;;;;;;7.57;1.95;;;18.70;99.90;;;;;;5057352;28;20535;-63
2023/02/23 10:27:48;;;;;;;5.50;1.50;;;18.70;99.90;;;;;;5044569;28;20051;-63
2023/02/23 10:30:21;;;;;;;6.20;1.35;;;18.70;99.90;;;;;;5042453;28;20063;-66
2023/02/23 10:33:21;;;;;;;5.07;1.13;;;18.90;99.90;;;;;;5043413;28;20149;-63
2023/02/23 10:35:51;;;;;;;10.60;1.63;;;18.90;99.90;;;;;;5039180;28;20457;-65
2023/02/23 10:38:19;;;;;;;9.10;1.25;;;19.00;99.90;;;;;;5049713;28;20167;-64
2023/02/23 10:40:56;;;;;;;12.52;1.52;;;19.00;99.90;;;;;;5052765;28;20060;-64
2023/02/23 10:43:23;;;;;;;8.05;2.40;;;19.00;99.90;;;;;;5052238;28;20052;-64
2023/02/23 10:45:52;;;;;;;6.03;1.27;;;19.00;99.90;;;;;;5057986;28;20122;-64
2023/02/23 10:48:40;;;;;;;5.07;1.30;;;19.00;99.90;;;;;;5046842;28;20032;-64
2023/02/23 10:51:18;;;;;;;8.88;1.10;;;19.10;99.90;;;;;;5046787;28;20027;-64
2023/02/23 10:53:46;;;;;;;6.95;1.40;;;19.10;99.90;;;;;;5058390;28;20707;-64
2023/02/23 10:56:17;;;;;;;9.85;1.33;;;19.10;99.90;;;;;;5050910;28;20139;-64
2023/02/23 10:58:50;;;;;;;5.18;1.27;;;19.10;99.90;;;;;;5056940;28;20033;-64
2023/02/23 11:01:37;;;;;;;12.30;2.25;;;19.10;99.90;;;;;;5045859;28;20033;-64
2023/02/23 11:04:23;;;;;;;8.65;1.30;;;19.00;99.90;;;;;;5043601;28;20486;-64
2023/02/23 11:06:51;;;;;;;12.45;1.77;;;18.90;99.90;;;;;;5043979;28;20056;-64
2023/02/23 11:09:22;;;;;;;6.10;1.20;;;18.80;99.90;;;;;;5043504;28;20112;-64
2023/02/23 11:12:01;;;;;;;11.25;2.33;;;18.70;99.90;;;;;;5049038;28;20039;-64
2023/02/23 11:14:31;;;;;;;6.22;0.95;;;18.60;99.90;;;;;;5042725;28;20025;-64
2023/02/23 11:16:59;;;;;;;7.10;1.15;;;18.50;99.90;;;;;;5042845;28;20025;-64
2023/02/23 11:19:38;;;;;;;5.18;1.73;;;18.40;99.90;;;;;;5044689;28;20089;-64
2023/02/23 11:22:09;;;;;;;6.50;1.80;;;18.30;99.90;;;;;;5054820;28;20025;-64
2023/02/23 11:24:40;;;;;;;9.38;1.25;;;18.20;99.90;;;;;;5042449;28;20033;-64
2023/02/23 11:27:23;;;;;;;7.28;1.40;;;18.20;99.90;;;;;;5045688;28;20035;-64
2023/02/23 11:29:54;;;;;;;8.45;1.65;;;18.10;99.90;;;;;;5042747;28;20032;-64
2023/02/23 11:32:27;;;;;;;12.70;1.40;;;18.10;99.90;;;;;;5043358;28;20053;-64
2023/02/23 11:35:30;;;;;;;9.15;1.45;;;18.00;99.90;;;;;;5047689;28;20071;-64
2023/02/23 11:37:58;;;;;;;4.80;1.77;;;17.90;99.90;;;;;;5054345;28;20044;-64
2023/02/23 11:40:33;;;;;;;10.07;2.22;;;17.80;99.90;;;;;;5047648;28;20033;-64
2023/02/23 11:43:08;;;;;;;9.18;2.38;;;17.70;99.90;;;;;;5040691;28;20061;-64
2023/02/23 11:45:49;;;;;;;12.23;2.47;;;17.60;99.90;;;;;;5045236;28;20025;-63
2023/02/23 11:48:27;;;;;;;8.45;1.30;;;17.50;99.90;;;;;;5048031;28;20674;-64
2023/02/23 11:50:56;;;;;;;6.63;1.42;;;17.50;99.90;;;;;;5045726;28;20172;-65
2023/02/23 11:53:40;;;;;;;11.18;2.70;;;17.50;99.90;;;;;;5050513;28;20052;-64
2023/02/23 11:56:11;;;;;;;11.77;1.60;;;17.50;99.90;;;;;;5045732;28;20037;-64
2023/02/23 11:58:48;;;;;;;5.57;1.65;;;17.40;99.90;;;;;;5048585;28;20056;-64
2023/02/23 12:01:22;;;;;;;6.93;2.00;;;17.40;99.90;;;;;;5051739;28;20662;-64
2023/02/23 12:03:56;;;;;;;14.20;1.95;;;17.40;99.90;;;;;;5051746;28;20028;-64
2023/02/23 12:06:37;;;;;;;12.73;2.40;;;17.40;99.90;;;;;;5041234;28;20155;-64
2023/02/23 12:09:17;;;;;;;9.15;1.70;;;17.30;99.90;;;;;;5043137;28;20036;-64
2023/02/23 12:12:08;;;;;;;9.48;1.70;;;17.20;99.90;;;;;;5048116;28;20059;-64
2023/02/23 12:14:48;;;;;;;5.38;1.30;;;17.10;99.90;;;;;;5042836;28;20039;-64
2023/02/23 12:17:31;;;;;;;31.38;1.83;;;17.00;99.90;;;;;;5045144;28;20037;-64
2023/02/23 12:20:14;;;;;;;5.45;1.13;;;17.00;99.90;;;;;;5050425;28;20041;-64
2023/02/23 12:22:53;;;;;;;5.93;1.30;;;16.90;99.90;;;;;;5038339;28;20021;-64
2023/02/23 12:25:24;;;;;;;10.48;1.33;;;16.80;99.90;;;;;;5047236;28;20040;-64
2023/02/23 12:28:06;;;;;;;7.38;1.73;;;16.70;99.90;;;;;;5046246;28;20045;-64
2023/02/23 12:30:59;;;;;;;14.07;1.80;;;16.60;99.90;;;;;;5040901;28;20029;-64
2023/02/23 12:33:42;;;;;;;8.18;1.45;;;16.50;99.90;;;;;;5039288;28;20052;-64
2023/02/23 12:36:15;;;;;;;9.00;1.95;;;16.60;99.90;;;;;;5042236;28;20697;-64
2023/02/23 12:39:01;;;;;;;10.50;2.10;;;16.60;99.90;;;;;;5044055;28;20037;-64
2023/02/23 12:41:46;;;;;;;14.18;1.85;;;16.60;99.90;;;;;;5043122;28;20029;-64
2023/02/23 12:44:18;;;;;;;9.25;1.73;;;16.70;99.90;;;;;;5037491;28;20037;-64
2023/02/23 12:46:52;;;;;;;7.45;1.65;;;16.70;99.90;;;;;;5045838;28;20121;-64
2023/02/23 12:49:56;;;;;;;20.63;2.97;;;16.70;99.90;;;;;;5047000;28;20497;-64
2023/02/23 12:52:31;;;;;;;13.00;1.92;;;16.90;99.90;;;;;;5006946;28;20018;-64
2023/02/23 12:54:59;;;;;;;11.50;2.72;;;17.00;99.90;;;;;;5044137;28;20486;-64
2023/02/23 12:57:37;;;;;;;10.73;1.67;;;17.10;99.90;;;;;;5048172;28;20090;-64
2023/02/23 13:00:30;;;;;;;14.93;3.25;;;17.20;99.90;;;;;;5050916;28;20033;-64
2023/02/23 13:03:18;;;;;;;10.45;1.75;;;17.20;99.90;;;;;;5051655;28;20023;-64
2023/02/23 13:06:19;;;;;;;11.68;2.33;;;17.20;99.90;;;;;;5065810;28;20069;-64
2023/02/23 13:09:12;;;;;;;11.93;1.70;;;17.30;99.90;;;;;;5064264;28;20598;-64
2023/02/23 13:11:52;;;;;;;4.75;1.30;;;17.30;99.90;;;;;;5052515;28;20028;-64
2023/02/23 13:14:52;;;;;;;5.05;1.65;;;17.40;99.90;;;;;;5052434;28;20025;-64
2023/02/23 13:17:31;;;;;;;12.90;2.03;;;17.40;99.90;;;;;;5052234;28;20028;-64
2023/02/23 13:20:12;;;;;;;6.43;1.38;;;17.50;99.90;;;;;;5071318;28;20025;-64
2023/02/23 13:23:00;;;;;;;13.32;2.00;;;17.50;99.90;;;;;;5072143;28;20017;-64
2023/02/23 13:25:52;;;;;;;10.27;1.95;;;17.60;99.90;;;;;;5072175;28;20078;-64
2023/02/23 13:28:49;;;;;;;13.95;2.28;;;17.70;99.90;;;;;;5072055;28;20029;-64
2023/02/23 13:31:20;;;;;;;7.80;1.40;;;17.70;99.90;;;;;;5044992;28;20187;-64
2023/02/23 13:33:48;;;;;;;10.52;1.30;;;17.80;99.90;;;;;;5050027;28;20040;-64
2023/02/23 13:36:16;;;;;;;7.28;1.30;;;17.80;99.90;;;;;;5048350;28;20647;-64
2023/02/23 13:39:04;;;;;;;5.32;1.42;;;17.80;99.90;;;;;;5049642;28;20025;-64
2023/02/23 13:41:48;;;;;;;9.32;2.53;;;17.90;99.90;;;;;;5050072;28;20033;-64
2023/02/23 13:44:33;;;;;;;13.07;2.28;;;17.90;99.90;;;;;;5050057;28;20106;-64
2023/02/23 13:47:26;;;;;;;12.60;2.83;;;17.90;99.90;;;;;;5051595;28;20075;-64
2023/02/23 13:50:24;;;;;;;11.20;1.52;;;18.00;99.90;;;;;;5051727;28;20083;-64
2023/02/23 13:52:57;;;;;;;18.60;2.97;;;18.00;99.90;;;;;;5048064;28;20030;-63
2023/02/23 13:55:29;;;;;;;6.93;1.70;;;18.10;99.90;;;;;;5050317;28;20020;-64
2023/02/23 13:58:15;;;;;;;9.90;2.05;;;18.10;99.90;;;;;;5048668;28;20032;-64
2023/02/23 14:00:44;;;;;;;7.90;1.60;;;18.10;99.90;;;;;;5050319;28;20401;-63
2023/02/23 14:03:26;;;;;;;15.20;2.70;;;18.20;99.90;;;;;;5048236;28;20047;-63
2023/02/23 14:05:58;;;;;;;9.88;1.73;;;18.20;99.90;;;;;;5049410;28;20017;-63
2023/02/23 14:08:36;;;;;;;6.78;1.88;;;18.20;99.90;;;;;;5050132;28;20150;-64
2023/02/23 14:11:05;;;;;;;9.93;1.92;;;18.20;99.90;;;;;;5049195;28;20060;-63
2023/02/23 14:13:39;;;;;;;12.40;1.98;;;18.20;99.90;;;;;;5049994;28;20025;-64
2023/02/23 14:16:14;;;;;;;10.38;2.08;;;18.30;99.90;;;;;;5051237;28;20024;-64
2023/02/23 14:19:06;;;;;;;10.60;2.75;;;18.30;99.90;;;;;;5050978;28;20048;-64
2023/02/23 14:22:02;;;;;;;6.95;1.58;;;18.30;99.90;;;;;;5038182;28;20036;-63
2023/02/23 14:24:30;;;;;;;17.67;2.20;;;18.20;99.90;;;;;;5044468;28;20025;-64
2023/02/23 14:27:32;;;;;;;8.48;2.13;;;18.30;99.90;;;;;;5050566;28;20032;-64
2023/02/23 14:30:19;;;;;;;10.40;1.60;;;18.20;99.90;;;;;;5049674;28;20067;-64
2023/02/23 14:32:49;;;;;;;8.63;1.80;;;18.20;99.90;;;;;;5041642;28;20055;-63
2023/02/23 14:35:41;;;;;;;13.30;2.03;;;18.20;99.90;;;;;;5050730;28;20478;-64
2023/02/23 14:38:31;;;;;;;8.98;1.50;;;18.20;99.90;;;;;;5050410;28;20035;-64